Ashland, Montana
Current Conditions -  °F | °C
As of 9:53 AM on Thursday 18 Dec 2014 (Local Time) from KMLS Reporting Station
Clear Clear  
Wind Chill: -6°   Ceiling: Unl
Heat Index: -3°   Visibility: 10mi
Dew Point: -4°   Wind: 6mph
Humidity: 89%   Direction: 210°SSW
Pressure: 29.99"   Gusts: NA
Location:  45.62°N, 106.31°W
Report Text: KMLS 181653Z AUTO 21005KT 10SM CLR M03/M04 A2999 RMK AO2 SLP185 T10281044
Loading
Personal Weather Stations






























Interactive Weather Map New forecast layout! Learn more

10-Day Weather Forecast

Advertisements
Track Severe Weather on mobile